MAPA DE AEROPUERTO

INFORMACIÓN METAR y TAF

METAR FOR BIIS
ADDS - METARS form results

(1630 UTC 07 May 2021)
Data provider http://aviationweather.gov/metar/data/
 
METAR text: BIIS 071600Z 04010KT 9999 BKN036 00/M06 Q1022
Conditions at: BIIS (ISAFJOROUR , IS) observed 1600 UTC 07 May 2021
Temperature: 0.0°C (32°F)
Dewpoint: -6.0°C (21°F) [RH = 64%]
Pressure (altimeter): 30.18 inches Hg (1022.0 mb)
Winds: from the NE (40 degrees) at 12 MPH (10 knots; 5.1 m/s)
Visibility: 6 or more miles (10+ km)
Ceiling: 3600 feet AGL
Clouds: broken clouds at 3600 feet AGL
Weather: no significant weather observed at this time

Forecast for: BIIS (ISAFJOROUR , IS)
Text: TAF BIIS 071604Z 0717/0802 04010KT 9999 BKN030
Forecast period: 1700 UTC 07 May 2021 to 0200 UTC 08 May 2021
Forecast type: FROM: standard forecast or significant change
Winds: from the NE (40 degrees) at 12 MPH (10 knots; 5.1 m/s)
Visibility: 6 or more miles (10+ km)
Ceiling: 3000 feet AGL
Clouds: broken clouds at 3000 feet AGL
Weather: no significant weather forecast for this period